Terminal Aerodrome Forecast
Issued by NWS Lubbock, TX

Home | Current Version | Previous Version | Text Only | Print | Product List | Glossary On
Versions: 1 2 3 4 5 6 7 8 9 10 11 12 13
787
FTUS44 KLUB 292330
TAFLBB
TAF
KLBB 292330Z 3000/3024 33019KT 6SM -SHRA BKN015 OVC050
     FM300500 33018KT P6SM SCT015 BKN050
     FM301000 32020KT P6SM FEW200=

USA.gov is the U.S. government's official web portal to all federal, state and local government web resources and services.